Time;durP1;ratioP1;P1;durP2;ratioP2;P2;SDS_P1;SDS_P2;PMS_P1;PMS_P2;Temp;Humidity;BMP_temperature;BMP_pressure;BME280_temperature;BME280_humidity;BME280_pressure;Samples;Min_cycle;Max_cycle;Signal;HPM_P1;HPM_P2
2023/04/09 00:00:44;;;;;;;13.97;8.87;;;;;;;8.42;100.00;99760.69;5107439;28;20286;-49
2023/04/09 00:03:33;;;;;;;10.73;8.43;;;;;;;8.42;100.00;99761.53;5108889;28;20199;-48
2023/04/09 00:06:44;;;;;;;13.53;8.83;;;;;;;8.35;100.00;99768.53;5108678;28;20264;-49
2023/04/09 00:09:37;;;;;;;13.30;8.53;;;;;;;8.33;100.00;99770.31;5109886;28;20229;-48
2023/04/09 00:12:44;;;;;;;11.20;7.50;;;;;;;8.27;100.00;99764.31;5108982;28;20226;-51
2023/04/09 00:15:54;;;;;;;10.63;7.80;;;;;;;8.25;100.00;99766.06;5109661;28;20638;-49
2023/04/09 00:19:02;;;;;;;17.07;9.33;;;;;;;8.31;100.00;99772.06;5108138;28;20191;-49
2023/04/09 00:22:00;;;;;;;12.37;8.13;;;;;;;8.28;100.00;99777.22;5106576;28;20211;-50
2023/04/09 00:24:49;;;;;;;13.90;10.10;;;;;;;8.24;100.00;99766.97;5109202;28;20285;-49
2023/04/09 00:27:41;;;;;;;10.87;8.27;;;;;;;8.22;100.00;99772.16;5109128;28;20198;-49
2023/04/09 00:30:48;;;;;;;11.80;8.47;;;;;;;8.17;100.00;99779.13;5109171;28;20194;-48
2023/04/09 00:33:44;;;;;;;12.57;8.93;;;;;;;8.06;100.00;99780.16;5109915;28;20194;-48
2023/04/09 00:36:47;;;;;;;12.13;7.97;;;;;;;7.95;100.00;99783.75;5112991;28;20498;-48
2023/04/09 00:39:49;;;;;;;9.70;7.93;;;;;;;7.88;100.00;99776.97;5111097;28;20191;-48
2023/04/09 00:42:43;;;;;;;14.03;7.67;;;;;;;7.80;100.00;99783.09;5112456;28;20281;-48
2023/04/09 00:49:05;;;;;;;12.33;8.23;;;;;;;7.55;100.00;99769.66;5111572;28;20230;-50
2023/04/09 00:57:48;;;;;;;12.77;8.73;;;;;;;7.76;100.00;99790.06;5104954;28;20202;-50
2023/04/09 01:00:52;;;;;;;10.70;8.30;;;;;;;7.77;100.00;99791.78;5112465;28;20194;-48
2023/04/09 01:03:43;;;;;;;14.57;8.97;;;;;;;7.62;100.00;99787.66;5112221;28;20243;-48
2023/04/09 01:06:43;;;;;;;12.17;8.57;;;;;;;7.49;100.00;99780.91;5112135;28;20194;-48
2023/04/09 01:09:43;;;;;;;12.47;8.20;;;;;;;7.50;100.00;99797.25;5111807;28;20222;-49
2023/04/09 01:42:11;;;;;;;12.67;9.13;;;;;;;7.27;100.00;99793.22;5089883;28;20270;-47
2023/04/09 01:45:12;;;;;;;17.73;11.07;;;;;;;7.28;100.00;99796.66;5091149;28;20286;-47
2023/04/09 01:54:22;;;;;;;20.67;11.43;;;;;;;7.16;100.00;99800.22;5089495;28;20206;-49
2023/04/09 02:00:55;;;;;;;19.07;11.60;;;;;;;7.17;100.00;99803.66;5089424;28;20675;-49
2023/04/09 02:03:43;;;;;;;18.27;11.47;;;;;;;7.18;100.00;99808.81;5090918;28;20290;-47
2023/04/09 02:06:30;;;;;;;14.33;9.50;;;;;;;7.13;100.00;99800.25;5090706;28;20198;-48
2023/04/09 02:33:52;;;;;;;20.90;11.37;;;;;;;7.24;100.00;99811.31;5083533;28;20694;-48
2023/04/09 02:36:53;;;;;;;16.63;10.13;;;;;;;7.23;100.00;99813.91;5090323;28;20202;-49
2023/04/09 02:48:52;;;;;;;18.60;11.10;;;;;;;7.06;100.00;99814.09;5086691;28;20231;-49
2023/04/09 02:51:49;;;;;;;17.83;10.67;;;;;;;7.01;100.00;99808.13;5089984;28;20290;-48
2023/04/09 02:54:39;;;;;;;19.27;11.00;;;;;;;7.01;100.00;99821.00;5090140;28;20252;-49
2023/04/09 02:57:37;;;;;;;16.47;10.30;;;;;;;7.02;100.00;99822.72;5089532;28;20244;-50
2023/04/09 03:00:45;;;;;;;17.97;11.63;;;;;;;6.94;100.00;99819.38;5089740;28;20191;-48
2023/04/09 03:03:50;;;;;;;19.03;12.43;;;;;;;6.98;100.00;99826.22;5089930;28;20269;-48
2023/04/09 03:06:54;;;;;;;20.60;12.53;;;;;;;6.97;100.00;99821.94;5090074;28;20194;-48
2023/04/09 03:09:52;;;;;;;19.90;12.00;;;;;;;6.99;100.00;99820.19;5089943;28;20219;-48
2023/04/09 03:15:48;;;;;;;26.00;14.00;;;;;;;6.84;100.00;99807.44;5089700;28;20194;-49
2023/04/09 03:18:49;;;;;;;20.67;13.13;;;;;;;6.84;100.00;99810.00;5089799;28;20264;-50
2023/04/09 03:21:40;;;;;;;25.20;14.00;;;;;;;6.80;100.00;99814.34;5089501;28;20210;-50
2023/04/09 03:24:40;;;;;;;21.57;12.40;;;;;;;6.77;100.00;99803.22;5089790;28;20191;-49
2023/04/09 03:30:43;;;;;;;27.63;14.97;;;;;;;6.76;100.00;99817.81;5088416;28;20231;-49
2023/04/09 03:33:41;;;;;;;23.47;14.10;;;;;;;6.79;100.00;99816.91;5089542;28;20199;-49
2023/04/09 03:39:39;;;;;;;28.43;15.80;;;;;;;6.85;100.00;99809.16;5089331;28;20278;-48
2023/04/09 03:42:29;;;;;;;26.00;14.33;;;;;;;6.90;100.00;99821.13;5089398;28;20652;-48
2023/04/09 03:45:52;;;;;;;30.50;17.00;;;;;;;6.94;100.00;99829.69;5089471;28;20636;-48
2023/04/09 03:51:53;;;;;;;30.87;15.43;;;;;;;7.02;100.00;99835.63;5088965;28;20202;-48
2023/04/09 03:54:49;;;;;;;29.67;16.73;;;;;;;7.02;100.00;99832.19;5089244;28;20287;-49
2023/04/09 03:57:24;;;;;;;30.47;16.63;;;;;;;7.05;100.00;99834.75;5089204;28;20199;-49
2023/04/09 04:00:17;;;;;;;29.03;15.93;;;;;;;7.05;100.00;99843.34;5089170;28;20206;-49
2023/04/09 04:02:50;;;;;;;25.00;15.17;;;;;;;7.09;100.00;99836.44;5088807;28;20286;-50
2023/04/09 04:05:54;;;;;;;29.73;16.17;;;;;;;7.04;100.00;99839.06;5089173;28;20223;-51
2023/04/09 04:08:48;;;;;;;27.07;14.77;;;;;;;7.05;100.00;99843.34;5091409;28;20191;-50
2023/04/09 04:14:30;;;;;;;35.60;18.10;;;;;;;7.02;100.00;99845.97;5051453;28;20236;-50
2023/04/09 04:17:10;;;;;;;34.17;17.50;;;;;;;7.02;100.00;99842.50;5051879;28;20274;-49
2023/04/09 04:19:56;;;;;;;26.63;16.07;;;;;;;7.03;100.00;99831.31;5051910;28;20216;-50
2023/04/09 04:22:31;;;;;;;27.87;16.10;;;;;;;7.09;100.00;99850.22;5051659;28;20213;-49
2023/04/09 04:25:08;;;;;;;29.63;16.30;;;;;;;7.14;100.00;99852.72;5051584;28;20251;-50
2023/04/09 04:27:58;;;;;;;26.77;15.87;;;;;;;7.11;100.00;99847.63;5051015;28;20231;-47
2023/04/09 04:30:30;;;;;;;27.37;15.97;;;;;;;7.23;100.00;99847.47;5051456;28;20248;-51
2023/04/09 04:33:10;;;;;;;27.53;15.57;;;;;;;7.16;100.00;99851.00;5052161;28;20208;-48
2023/04/09 04:35:57;;;;;;;23.67;14.43;;;;;;;7.21;100.00;99855.25;5051587;28;20220;-48
2023/04/09 04:38:40;;;;;;;26.90;14.20;;;;;;;7.27;100.00;99850.03;5051667;28;20235;-48
2023/04/09 04:41:31;;;;;;;24.37;14.97;;;;;;;7.25;100.00;99851.75;5063643;28;20215;-48
2023/04/09 04:44:14;;;;;;;27.27;16.43;;;;;;;7.34;100.00;99849.94;5070265;28;20613;-49
2023/04/09 04:47:05;;;;;;;28.70;16.07;;;;;;;7.36;100.00;99858.53;5069774;28;20243;-49
2023/04/09 04:49:44;;;;;;;24.63;14.37;;;;;;;7.36;100.00;99859.38;5051043;28;20233;-50
2023/04/09 04:52:25;;;;;;;25.47;13.30;;;;;;;7.26;100.00;99858.63;5050830;28;20748;-50
2023/04/09 04:55:01;;;;;;;25.47;15.03;;;;;;;7.25;100.00;99862.09;5051225;28;20622;-49
2023/04/09 04:57:46;;;;;;;23.00;14.20;;;;;;;7.33;100.00;99861.16;5051515;28;20665;-48
2023/04/09 05:00:38;;;;;;;28.93;16.00;;;;;;;7.33;100.00;99859.44;5071076;28;20196;-47
2023/04/09 05:06:26;;;;;;;29.10;15.80;;;;;;;7.35;100.00;99856.81;5069992;28;20615;-48
2023/04/09 05:09:06;;;;;;;28.43;15.53;;;;;;;7.45;100.00;99863.63;5071831;28;20246;-48
2023/04/09 05:11:47;;;;;;;32.83;15.37;;;;;;;7.51;100.00;99860.97;5072859;28;20680;-50
2023/04/09 05:14:22;;;;;;;25.70;14.77;;;;;;;7.53;100.00;99854.91;5111653;28;20705;-49
2023/04/09 05:16:57;;;;;;;25.33;14.97;;;;;;;7.49;100.00;99850.66;5111517;28;20222;-48
2023/04/09 05:19:35;;;;;;;28.57;14.10;;;;;;;7.58;100.00;99857.44;5109351;28;20183;-48
2023/04/09 05:22:05;;;;;;;25.30;14.53;;;;;;;7.69;100.00;99863.34;5109215;28;20190;-48
2023/04/09 05:24:41;;;;;;;28.83;14.63;;;;;;;7.74;100.00;99864.16;5111189;28;20583;-49
2023/04/09 05:30:18;;;;;;;24.20;13.33;;;;;;;7.78;100.00;99860.66;5110530;28;20227;-47
2023/04/09 05:33:20;;;;;;;28.57;14.93;;;;;;;7.90;100.00;99862.25;5111080;28;20198;-48
2023/04/09 05:39:38;;;;;;;27.30;14.43;;;;;;;8.09;100.00;99865.44;5109381;28;20669;-48
2023/04/09 05:42:22;;;;;;;27.00;14.47;;;;;;;8.08;100.00;99867.16;5111543;28;20201;-47
2023/04/09 05:45:25;;;;;;;32.03;15.60;;;;;;;8.08;100.00;99876.66;5111287;28;21070;-45
2023/04/09 05:48:35;;;;;;;25.43;14.50;;;;;;;8.28;100.00;99874.66;5111370;28;20585;-47
2023/04/09 05:51:38;;;;;;;22.53;12.50;;;;;;;8.39;100.00;99880.56;5111293;28;20614;-49
2023/04/09 05:57:44;;;;;;;21.47;12.73;;;;;;;8.46;100.00;99882.19;5109703;28;20195;-48
2023/04/09 06:00:36;;;;;;;24.27;12.40;;;;;;;8.51;100.00;99882.97;5110443;28;20195;-51
2023/04/09 06:06:36;;;;;;;29.40;12.97;;;;;;;8.55;100.00;99892.41;5089990;28;20214;-48
2023/04/09 06:09:43;;;;;;;23.53;12.43;;;;;;;8.57;100.00;99888.06;5090886;28;20645;-48
2023/04/09 06:12:54;;;;;;;21.10;11.70;;;;;;;8.64;100.00;99889.69;5089323;28;20226;-48
2023/04/09 06:15:51;;;;;;;23.67;12.33;;;;;;;8.70;100.00;99892.16;5090741;28;21180;-47
2023/04/09 06:18:52;;;;;;;23.90;11.97;;;;;;;8.75;100.00;99899.88;5090153;28;20556;-48
2023/04/09 06:30:52;;;;;;;22.80;12.03;;;;;;;9.05;100.00;99890.75;5088573;28;20215;-49
2023/04/09 06:33:57;;;;;;;21.37;11.97;;;;;;;9.17;100.00;99890.53;5109853;28;20191;-51
2023/04/09 06:39:48;;;;;;;21.33;11.47;;;;;;;9.41;100.00;99891.84;5102930;28;20195;-49
2023/04/09 06:42:36;;;;;;;17.80;10.97;;;;;;;9.40;100.00;99884.97;5110317;28;20251;-48
2023/04/09 06:45:30;;;;;;;15.50;10.57;;;;;;;9.58;100.00;99896.75;5110450;28;20195;-48
2023/04/09 06:48:36;;;;;;;15.43;10.47;;;;;;;9.73;100.00;99902.47;5110110;28;20190;-47
2023/04/09 06:51:30;;;;;;;16.00;10.07;;;;;;;9.67;100.00;99902.59;5099668;28;20218;-50
2023/04/09 06:54:00;;;;;;;17.30;9.67;;;;;;;9.78;100.00;99897.22;5104826;28;20251;-48
2023/04/09 06:56:31;;;;;;;13.63;9.60;;;;;;;9.69;100.00;99900.84;5097718;28;20227;-47
2023/04/09 07:05:17;;;;;;;11.17;9.40;;;;;;;10.07;100.00;99918.22;5108651;28;20222;-49
2023/04/09 07:07:58;;;;;;;11.70;9.17;;;;;;;10.15;100.00;99925.88;5109075;28;20258;-48
2023/04/09 07:10:42;;;;;;;12.70;9.77;;;;;;;10.29;100.00;99912.63;5109044;28;20241;-47
2023/04/09 07:13:25;;;;;;;12.33;8.57;;;;;;;10.28;100.00;99916.94;5108065;28;20226;-47
2023/04/09 07:15:54;;;;;;;12.17;9.47;;;;;;;10.38;100.00;99915.03;5109416;28;20268;-48
2023/04/09 07:18:35;;;;;;;12.00;8.97;;;;;;;10.39;100.00;99914.13;5104950;28;20226;-47
2023/04/09 07:21:18;;;;;;;10.50;8.70;;;;;;;10.36;100.00;99919.41;5107928;28;20669;-47
2023/04/09 07:23:59;;;;;;;8.60;7.73;;;;;;;10.45;100.00;99904.47;5107887;28;20692;-48
2023/04/09 07:26:54;;;;;;;9.23;7.70;;;;;;;10.59;100.00;99909.38;5109415;28;20211;-47
2023/04/09 07:29:45;;;;;;;9.80;7.13;;;;;;;10.98;100.00;99909.31;5109361;28;20255;-48
2023/04/09 07:32:55;;;;;;;8.90;7.23;;;;;;;11.47;100.00;99908.94;5108060;28;20191;-47
2023/04/09 07:35:45;;;;;;;9.53;7.70;;;;;;;12.32;100.00;99904.81;5108474;28;20283;-49
2023/04/09 07:38:37;;;;;;;7.53;6.63;;;;;;;12.97;100.00;99908.91;5107228;28;20191;-48
2023/04/09 07:41:24;;;;;;;7.10;6.30;;;;;;;13.76;100.00;99907.09;5108877;28;20259;-48
2023/04/09 07:44:12;;;;;;;8.10;7.30;;;;;;;14.17;98.08;99912.56;5110419;28;20195;-49
2023/04/09 07:47:11;;;;;;;7.53;6.73;;;;;;;14.09;97.39;99906.78;5112694;28;20205;-49
2023/04/09 07:50:11;;;;;;;9.50;6.77;;;;;;;14.17;96.29;99909.94;5112645;28;20218;-50
2023/04/09 07:52:59;;;;;;;10.73;7.97;;;;;;;13.96;97.42;99911.59;5112941;28;20203;-49
2023/04/09 07:55:50;;;;;;;7.67;6.97;;;;;;;14.38;95.83;99914.38;5113011;28;20202;-50
2023/04/09 08:01:40;;;;;;;7.93;7.23;;;;;;;16.59;81.32;99913.69;5112701;28;20768;-48
2023/04/09 08:04:11;;;;;;;8.93;7.80;;;;;;;16.66;80.20;99914.28;5112366;28;20226;-50
2023/04/09 08:09:36;;;;;;;8.30;6.90;;;;;;;16.09;81.32;99925.63;5109693;28;20279;-51
2023/04/09 08:12:37;;;;;;;7.57;6.83;;;;;;;16.76;79.18;99926.03;5111308;28;20252;-50
2023/04/09 08:15:15;;;;;;;7.93;7.13;;;;;;;18.19;73.86;99923.19;5110551;28;20198;-50
2023/04/09 08:21:28;;;;;;;7.20;6.70;;;;;;;18.09;72.11;99914.94;5111670;28;20236;-47
2023/04/09 08:24:34;;;;;;;6.80;6.30;;;;;;;19.52;67.55;99935.88;5112179;28;20195;-49
2023/04/09 08:27:04;;;;;;;8.88;6.57;;;;;;;21.83;59.03;99930.81;5111834;28;20198;-49
2023/04/09 08:29:35;;;;;;;8.90;7.50;;;;;;;22.77;53.46;99934.75;5111103;28;20267;-48
2023/04/09 08:32:26;;;;;;;7.45;6.85;;;;;;;21.67;53.63;99931.84;5110806;28;20218;-48
2023/04/09 08:38:46;;;;;;;9.20;8.25;;;;;;;19.42;59.39;99930.25;5109726;28;20740;-50
2023/04/09 08:45:11;;;;;;;6.20;5.88;;;;;;;21.24;55.09;99922.47;5105191;28;20227;-51
2023/04/09 08:48:08;;;;;;;7.22;6.60;;;;;;;19.43;58.28;99921.41;5111788;28;20191;-55
2023/04/09 08:50:58;;;;;;;7.43;6.72;;;;;;;18.01;62.25;99915.34;5110610;28;20721;-53
2023/04/09 08:53:57;;;;;;;8.05;6.97;;;;;;;17.04;65.58;99909.84;5110532;28;20642;-53
2023/04/09 08:56:38;;;;;;;9.23;7.60;;;;;;;17.37;65.64;99904.69;5108195;28;20668;-51
2023/04/09 08:59:35;;;;;;;8.03;7.40;;;;;;;18.21;63.41;99911.66;5091124;28;20685;-50
2023/04/09 09:02:49;;;;;;;8.75;7.85;;;;;;;17.95;64.21;99913.03;5092144;28;20222;-50
2023/04/09 09:12:34;;;;;;;7.97;7.23;;;;;;;18.30;64.73;99900.66;5090916;28;20226;-48
2023/04/09 09:15:55;;;;;;;7.65;6.95;;;;;;;19.53;59.40;99906.81;5091852;28;20195;-55
2023/04/09 09:18:55;;;;;;;8.68;7.30;;;;;;;19.16;59.89;99907.25;5090098;28;20287;-51
2023/04/09 09:22:13;;;;;;;11.52;7.10;;;;;;;19.30;60.01;99904.66;5103233;28;20731;-50
2023/04/09 09:25:25;;;;;;;;;;;;;;;;;;;;;
2023/04/09 09:28:27;;;;;;;8.15;7.47;;;;;;;17.83;63.94;99897.09;5102802;28;20202;-47
2023/04/09 09:38:04;;;;;;;8.25;7.47;;;;;;;18.47;61.04;99884.81;5110288;28;20199;-49
2023/04/09 09:41:08;;;;;;;8.50;7.78;;;;;;;17.33;63.88;99883.00;5111255;28;20194;-48
2023/04/09 09:44:28;;;;;;;;;;;;;;;;;;;;;
2023/04/09 09:50:22;;;;;;;6.82;6.25;;;;;;;20.30;55.63;99871.38;5109108;28;20230;-48
2023/04/09 09:56:18;;;;;;;7.32;6.72;;;;;;;22.32;51.12;99875.38;5110673;28;20561;-54
2023/04/09 09:59:16;;;;;;;7.68;7.18;;;;;;;22.53;49.43;99878.28;5107347;28;20250;-50
2023/04/09 10:02:35;;;;;;;;;;;;;;;;;;;;;
2023/04/09 10:05:21;;;;;;;7.43;6.72;;;;;;;20.86;53.12;99869.53;5106006;28;20589;-48
2023/04/09 10:07:55;;;;;;;7.80;7.20;;;;;;;20.05;53.24;99866.78;5108413;28;20194;-49
2023/04/09 10:10:33;;;;;;;7.47;6.97;;;;;;;19.69;54.12;99863.75;5109335;28;20218;-48
2023/04/09 10:13:09;;;;;;;6.80;6.25;;;;;;;18.86;56.46;99857.22;5106945;28;20226;-49
2023/04/09 10:15:50;;;;;;;7.05;6.50;;;;;;;18.58;56.84;99852.69;5108232;28;20187;-49
2023/04/09 10:18:21;;;;;;;10.13;9.18;;;;;;;17.77;59.60;99848.38;5107527;28;20209;-48
2023/04/09 10:21:01;;;;;;;9.60;8.57;;;;;;;17.40;60.88;99834.50;5109674;28;20199;-51
2023/04/09 10:23:44;;;;;;;8.10;7.30;;;;;;;17.08;62.17;99831.81;5109835;28;20190;-50
2023/04/09 10:26:26;;;;;;;7.85;7.18;;;;;;;16.89;63.45;99838.00;5109367;28;20222;-51
2023/04/09 10:29:16;;;;;;;7.73;6.93;;;;;;;16.38;64.21;99830.84;5109561;28;20198;-50
2023/04/09 10:31:59;;;;;;;7.27;6.77;;;;;;;16.11;65.49;99817.28;5108829;28;20215;-54
2023/04/09 10:34:53;;;;;;;7.93;7.23;;;;;;;16.00;65.38;99816.09;5107811;28;20206;-50
2023/04/09 10:37:28;;;;;;;6.70;6.20;;;;;;;15.97;63.84;99810.06;5107747;28;20191;-49
2023/04/09 10:40:08;;;;;;;7.70;6.83;;;;;;;15.93;65.57;99808.50;5109173;28;20190;-50
2023/04/09 10:42:42;;;;;;;15.97;6.73;;;;;;;15.84;66.88;99808.94;5105216;28;20229;-49
2023/04/09 10:45:13;;;;;;;7.93;6.80;;;;;;;15.69;66.83;99801.75;5108231;28;20190;-52
2023/04/09 10:47:52;;;;;;;6.10;5.70;;;;;;;15.72;66.21;99804.25;5109093;28;20199;-49
2023/04/09 10:50:31;;;;;;;6.90;6.30;;;;;;;15.69;64.04;99803.56;5109564;28;20225;-49
2023/04/09 10:53:12;;;;;;;6.33;5.53;;;;;;;15.78;62.21;99795.28;5110213;28;20571;-47
2023/04/09 10:55:50;;;;;;;5.77;5.27;;;;;;;15.98;62.33;99795.22;5110286;28;20194;-47
2023/04/09 10:58:21;;;;;;;5.50;5.10;;;;;;;16.18;60.80;99792.50;5110115;28;20271;-48
2023/04/09 11:01:09;;;;;;;5.60;5.20;;;;;;;16.32;59.00;99790.09;5110162;28;20682;-48
2023/04/09 11:04:08;;;;;;;5.10;4.70;;;;;;;16.56;58.08;99793.28;5109136;28;20201;-48
2023/04/09 11:06:51;;;;;;;4.33;4.03;;;;;;;16.51;57.16;99783.94;5110058;28;20191;-49
2023/04/09 11:09:27;;;;;;;4.20;3.90;;;;;;;16.41;57.95;99780.09;5110161;28;20202;-47
2023/04/09 11:12:16;;;;;;;4.40;4.10;;;;;;;16.41;57.87;99775.69;5095065;28;21520;-50
2023/04/09 11:14:49;;;;;;;4.53;4.20;;;;;;;15.74;58.86;99781.47;5066492;28;20283;-50
2023/04/09 11:23:46;;;;;;;5.93;4.43;;;;;;;15.94;58.57;99755.22;5065249;28;20269;-51
2023/04/09 11:26:21;;;;;;;4.27;3.87;;;;;;;15.98;58.99;99754.19;5068071;28;20203;-50
2023/04/09 11:29:21;;;;;;;4.10;3.80;;;;;;;16.13;56.61;99751.75;5067663;28;20199;-48
2023/04/09 11:32:23;;;;;;;3.50;3.30;;;;;;;16.25;53.70;99764.28;5068224;28;20718;-50
2023/04/09 11:35:36;;;;;;;5.03;4.13;;;;;;;16.19;50.77;99757.53;5068928;28;20291;-50
2023/04/09 11:45:09;;;;;;;4.20;3.80;;;;;;;15.59;50.31;99737.69;5068802;28;20222;-50
2023/04/09 11:48:05;;;;;;;8.10;4.80;;;;;;;15.41;51.83;99728.03;5068948;28;20282;-50
2023/04/09 11:50:35;;;;;;;4.67;4.27;;;;;;;15.53;49.63;99745.78;5069162;28;20242;-49
2023/04/09 11:53:39;;;;;;;4.30;4.00;;;;;;;15.30;48.72;99730.28;5069314;28;20203;-50
2023/04/09 11:56:29;;;;;;;5.47;4.23;;;;;;;15.42;48.94;99722.75;5069268;28;20200;-49
2023/04/09 12:05:41;;;;;;;5.17;4.67;;;;;;;15.52;48.04;99721.41;5065897;28;20203;-50
2023/04/09 12:11:19;;;;;;;8.87;6.87;;;;;;;15.49;51.25;99711.06;5062091;28;20339;-50
2023/04/09 12:14:06;;;;;;;6.13;5.00;;;;;;;15.37;50.89;99708.16;5076284;28;20235;-48
2023/04/09 12:16:50;;;;;;;6.30;5.60;;;;;;;15.53;50.90;99693.47;5101766;28;20229;-48
2023/04/09 12:22:36;;;;;;;6.57;5.93;;;;;;;15.69;53.12;99688.41;5109358;28;20674;-47
2023/04/09 12:25:37;;;;;;;6.30;5.77;;;;;;;15.66;53.65;99694.63;5109161;28;20199;-46
2023/04/09 12:28:21;;;;;;;5.40;5.00;;;;;;;15.76;53.11;99685.44;5108929;28;20466;-48
2023/04/09 12:31:07;;;;;;;8.00;5.10;;;;;;;15.84;52.72;99687.69;5111558;28;20584;-50
2023/04/09 12:33:44;;;;;;;6.17;5.67;;;;;;;15.72;54.56;99678.63;5112302;28;20286;-50
2023/04/09 12:36:22;;;;;;;5.57;5.17;;;;;;;15.74;55.12;99682.03;5112968;28;20230;-50
2023/04/09 12:39:19;;;;;;;5.80;5.40;;;;;;;15.77;55.83;99675.81;5112943;28;20673;-50
2023/04/09 12:45:07;;;;;;;6.30;5.80;;;;;;;15.80;55.10;99671.25;5112782;28;20209;-47
2023/04/09 12:50:53;;;;;;;5.57;5.17;;;;;;;15.92;55.55;99665.44;5109801;28;20652;-51
2023/04/09 12:56:41;;;;;;;5.23;4.83;;;;;;;15.79;57.60;99659.13;5111234;28;20696;-49
2023/04/09 12:59:43;;;;;;;;;;;;;;;;;;;;;
2023/04/09 13:02:34;;;;;;;5.87;5.30;;;;;;;15.82;57.97;99652.88;5094001;28;20205;-49
2023/04/09 13:05:30;;;;;;;7.57;4.77;;;;;;;15.69;53.71;99660.47;5111622;28;20588;-49
2023/04/09 13:08:27;;;;;;;9.83;5.23;;;;;;;15.70;54.25;99643.84;5111480;28;20195;-49
2023/04/09 13:11:32;;;;;;;5.93;5.43;;;;;;;15.88;51.30;99653.44;5111176;28;20285;-49
2023/04/09 13:14:25;;;;;;;7.17;6.27;;;;;;;15.78;51.41;99646.09;5110814;28;20320;-50
2023/04/09 13:17:35;;;;;;;5.30;4.90;;;;;;;15.86;53.21;99633.50;5111791;28;20271;-49
2023/04/09 13:20:23;;;;;;;5.60;5.20;;;;;;;15.96;53.94;99640.81;5112100;28;20583;-50
2023/04/09 13:23:10;;;;;;;5.57;5.17;;;;;;;15.87;52.59;99638.66;5110706;28;20730;-50
2023/04/09 13:26:02;;;;;;;5.67;5.27;;;;;;;15.84;51.21;99641.41;5111853;28;20194;-49
2023/04/09 13:29:12;;;;;;;5.67;5.20;;;;;;;15.91;52.56;99626.28;5110954;28;20241;-48
2023/04/09 13:38:16;;;;;;;5.60;5.20;;;;;;;16.00;53.89;99623.19;5092815;28;20259;-48
2023/04/09 13:41:26;;;;;;;4.47;4.17;;;;;;;16.03;53.91;99615.19;5111366;28;20195;-50
2023/04/09 13:44:25;;;;;;;6.37;5.27;;;;;;;15.98;53.54;99607.56;5110975;28;20195;-50
2023/04/09 13:50:13;;;;;;;7.17;6.47;;;;;;;15.84;52.24;99596.06;5111657;28;20302;-48
2023/04/09 13:52:58;;;;;;;7.67;6.10;;;;;;;15.97;52.23;99611.09;5110415;28;20276;-49
2023/04/09 13:55:55;;;;;;;6.00;5.50;;;;;;;15.85;51.86;99601.22;5111432;28;20190;-48
2023/04/09 13:58:50;;;;;;;6.30;5.80;;;;;;;15.85;52.16;99600.38;5109889;28;20202;-48
2023/04/09 14:01:47;;;;;;;5.80;5.30;;;;;;;15.74;52.25;99595.69;5111348;28;20646;-47
2023/04/09 14:07:58;;;;;;;5.30;5.00;;;;;;;15.77;53.37;99606.00;5108520;28;20708;-48
2023/04/09 14:11:06;;;;;;;5.63;5.23;;;;;;;15.66;54.56;99594.34;5110249;28;20261;-49
2023/04/09 14:17:04;;;;;;;5.33;4.97;;;;;;;15.56;55.69;99578.25;5109664;28;20278;-48
2023/04/09 14:19:46;;;;;;;6.77;6.17;;;;;;;15.58;55.33;99589.47;5110697;28;20210;-48
2023/04/09 14:28:03;;;;;;;6.17;5.70;;;;;;;15.79;57.08;99569.28;5110292;28;20202;-48
2023/04/09 14:30:35;;;;;;;10.60;5.73;;;;;;;15.81;57.16;99567.41;5110838;28;20202;-49
2023/04/09 14:36:27;;;;;;;6.40;5.80;;;;;;;15.74;56.57;99564.28;5109300;28;20230;-48
2023/04/09 14:39:38;;;;;;;5.90;5.50;;;;;;;15.78;56.52;99588.53;5110307;28;20198;-47
2023/04/09 14:42:17;;;;;;;5.60;5.10;;;;;;;15.78;57.67;99573.69;5109281;28;20187;-47
2023/04/09 14:44:55;;;;;;;6.60;6.00;;;;;;;15.89;57.75;99571.38;5107586;28;20206;-49
2023/04/09 14:47:27;;;;;;;6.17;5.67;;;;;;;15.92;56.29;99579.06;5107806;28;20197;-49
2023/04/09 14:56:04;;;;;;;4.60;4.30;;;;;;;15.85;55.56;99580.28;5107757;28;20818;-48
2023/04/09 14:58:53;;;;;;;6.50;5.80;;;;;;;15.81;55.52;99570.88;5109278;28;20233;-47
2023/04/09 15:01:45;;;;;;;6.47;5.87;;;;;;;15.74;55.47;99571.28;5108949;28;20195;-47
2023/04/09 15:04:23;;;;;;;5.70;5.07;;;;;;;15.71;56.22;99561.78;5108587;28;20198;-50
2023/04/09 15:07:05;;;;;;;7.10;6.40;;;;;;;15.77;56.03;99564.13;5108437;28;20191;-49
2023/04/09 15:09:55;;;;;;;6.50;5.90;;;;;;;15.79;56.46;99557.06;5103417;28;20198;-48
2023/04/09 15:12:26;;;;;;;5.73;5.20;;;;;;;15.79;55.16;99546.59;5108256;28;20218;-48
2023/04/09 15:15:09;;;;;;;8.20;5.40;;;;;;;15.78;55.70;99551.91;5105668;28;20261;-51
2023/04/09 15:17:46;;;;;;;10.13;5.77;;;;;;;15.85;55.16;99553.28;5108393;28;20214;-49
2023/04/09 15:20:26;;;;;;;5.70;5.00;;;;;;;15.83;54.07;99555.97;5108268;28;20305;-55
2023/04/09 15:22:57;;;;;;;6.37;5.87;;;;;;;15.70;53.55;99549.63;5107885;28;20218;-53
2023/04/09 15:25:55;;;;;;;6.33;5.70;;;;;;;15.65;54.26;99549.03;5108756;28;20222;-49
2023/04/09 15:28:41;;;;;;;5.53;5.03;;;;;;;15.56;54.69;99544.25;5105444;28;20318;-50
2023/04/09 15:31:24;;;;;;;7.77;4.33;;;;;;;15.54;55.00;99538.22;5107472;28;20229;-49
2023/04/09 15:34:07;;;;;;;5.27;4.87;;;;;;;15.50;55.27;99526.19;5108086;28;20218;-49
2023/04/09 15:36:43;;;;;;;5.77;5.37;;;;;;;15.55;55.64;99539.94;5108309;28;20584;-49
2023/04/09 15:39:12;;;;;;;5.77;5.37;;;;;;;15.56;55.50;99531.16;5108189;28;20248;-49
2023/04/09 15:41:46;;;;;;;5.93;5.43;;;;;;;15.59;55.49;99529.22;5105371;28;20191;-48
2023/04/09 15:44:35;;;;;;;5.27;4.87;;;;;;;15.63;54.09;99523.84;5105929;28;20194;-50
2023/04/09 15:50:38;;;;;;;;;;;;;;;;;;;;;
2023/04/09 15:53:25;;;;;;;5.47;4.97;;;;;;;15.49;52.89;99540.19;5108669;28;20222;-49
2023/04/09 15:56:06;;;;;;;5.43;5.03;;;;;;;15.41;53.09;99535.34;5106224;28;20199;-50
2023/04/09 15:59:03;;;;;;;5.20;4.80;;;;;;;15.34;52.60;99520.88;5107165;28;20256;-50
2023/04/09 16:01:52;;;;;;;5.53;5.13;;;;;;;15.25;53.42;99511.66;5106254;28;20194;-51
2023/04/09 16:04:26;;;;;;;5.10;4.70;;;;;;;15.33;53.42;99527.03;5112204;28;20259;-49
2023/04/09 16:07:10;;;;;;;6.77;5.60;;;;;;;15.40;53.48;99525.78;5112071;28;20659;-51
2023/04/09 16:09:45;;;;;;;6.87;4.87;;;;;;;15.39;53.59;99529.31;5110188;28;20596;-50
2023/04/09 16:12:42;;;;;;;5.83;5.43;;;;;;;15.33;54.12;99526.16;5113000;28;20708;-50
2023/04/09 16:15:24;;;;;;;5.37;4.87;;;;;;;15.29;54.48;99527.22;5072337;28;20196;-50
2023/04/09 16:17:53;;;;;;;4.83;4.43;;;;;;;15.24;54.61;99530.91;5072327;28;20210;-49
2023/04/09 16:20:44;;;;;;;5.93;4.63;;;;;;;15.19;54.95;99527.66;5072635;28;20199;-53
2023/04/09 16:23:44;;;;;;;5.13;4.73;;;;;;;15.10;55.29;99522.03;5071003;28;20690;-48
2023/04/09 16:26:12;;;;;;;5.80;5.30;;;;;;;15.09;56.01;99525.56;5071203;28;20203;-48
2023/04/09 16:28:53;;;;;;;5.77;5.30;;;;;;;15.05;56.20;99521.38;5069671;28;20200;-49
2023/04/09 16:31:31;;;;;;;5.23;4.73;;;;;;;15.04;56.33;99522.31;5071563;28;20196;-49
2023/04/09 16:34:32;;;;;;;5.37;5.00;;;;;;;15.03;56.50;99523.22;5071488;28;20873;-49
2023/04/09 16:37:12;;;;;;;5.53;5.07;;;;;;;14.93;56.95;99520.19;5050858;28;20207;-49
2023/04/09 16:39:58;;;;;;;6.53;5.83;;;;;;;14.88;57.20;99519.56;5052292;28;20201;-49
2023/04/09 16:42:42;;;;;;;6.30;5.77;;;;;;;14.83;57.15;99522.38;5057406;28;20192;-49
2023/04/09 16:45:24;;;;;;;6.07;5.57;;;;;;;14.74;58.01;99514.13;5069651;28;20660;-49
2023/04/09 16:48:05;;;;;;;8.63;6.80;;;;;;;14.72;58.05;99515.94;5071641;28;20581;-49
2023/04/09 16:50:55;;;;;;;8.93;7.00;;;;;;;14.69;58.94;99521.31;5071448;28;20281;-49
2023/04/09 16:56:52;;;;;;;7.30;6.53;;;;;;;14.66;59.69;99524.09;5070042;28;20278;-48
2023/04/09 17:02:39;;;;;;;6.57;6.00;;;;;;;14.62;59.54;99525.13;5068996;28;20215;-48
2023/04/09 17:05:47;;;;;;;;;;;;;;;;;;;;;
2023/04/09 17:08:46;;;;;;;5.50;5.10;;;;;;;14.53;59.66;99531.63;5071756;28;20198;-48
2023/04/09 17:11:58;;;;;;;;;;;;;;;;;;;;;
2023/04/09 17:14:56;;;;;;;7.97;5.77;;;;;;;14.33;59.69;99518.56;5104335;28;20238;-52
2023/04/09 17:17:36;;;;;;;6.27;5.67;;;;;;;14.36;60.28;99539.31;5109226;28;20274;-50
2023/04/09 17:20:17;;;;;;;8.53;5.87;;;;;;;14.29;59.88;99538.72;5108578;28;20290;-50
2023/04/09 17:22:54;;;;;;;6.60;6.00;;;;;;;14.28;60.30;99541.41;5108901;28;20187;-50